Rockport, TX (78382)

12:22 PM CDT on August 27, 2016 (GMT -0500)
Palm Harbor-Buddy's Place | | Change Station
Active Advisory: Special Statement

Elev 10 ft 27.97 °N, 97.09 °W | Updated 13 seconds ago

Mostly Cloudy
Mostly Cloudy
87.8 °F
Feels Like 99 °F
N
5.0
Wind Variable Wind from NE
Gusts 7.0 mph

Today
High -- | Low -- °F
--% Chance of Precip.
Yesterday
High -- | Low -- °F
Precip. -- in
Pressure 29.99 in
Visibility 10.0 miles
Clouds Scattered Clouds 2800 ft
Scattered Clouds 4800 ft
Mostly Cloudy 6000 ft
Heat Index 99 °F
Dew Point 76 °F
Humidity 68%
Rainfall 0.00 in
Snow Depth Not available.
7:04 AM 7:54 PM
Waning Crescent, 23% visible
METAR KRKP 271653Z AUTO 03006KT 10SM SCT028 SCT048 BKN060 31/23 A2998 RMK AO2 SLP153 T03110233
Pressure 29.99 in
Visibility 10.0 miles
Clouds Scattered Clouds 2800 ft
Scattered Clouds 4800 ft
Mostly Cloudy 6000 ft
Heat Index 99 °F
Dew Point 76 °F
Humidity 68%
Rainfall 0.00 in
Snow Depth Not available.
7:04 AM 7:54 PM
Waning Crescent, 23% visible
METAR KRKP 271653Z AUTO 03006KT 10SM SCT028 SCT048 BKN060 31/23 A2998 RMK AO2 SLP153 T03110233

10-Day Weather Forecast

Almanac

Astronomy

Aug. 27, 2016 Rise Set
Actual Time
Civil Twilight
Nautical Twilight
Astronomical Twilight
Moon
Length of Visible Light
Length of Day
Tomorrow will be .
, % of the Moon is Illuminated

Today's Extremes

State Highs State Lows

Community

WunderPhotos

Upload Photos

1,935,387 photos uploaded!

WunderBlog® & News

Nearby

Air Quality

  Air Quality AQ Index Pollutant
Not available.

Snow Depth

Station Depth Elevation

Earthquake Activity

City Distance Mag. Time & Date
Minimum magnitude displayed is 2.5.

Coastal Water Temperatures

Place Temperature

Stations

Nearby Weather Stations

Station Location Temp. Windchill Dew Point Humidity Wind Precip. Elev Updated Type
                   

Watches & Warnings

Special Statement
Issued: 10:38 AM CDT Aug. 27, 2016 – National Weather Service

... Weak funnel clouds possible today along the coastal Bend...

The atmosphere will be favorable for the development of funnel
clouds today along the middle Texas coast. Most of these funnel
clouds will be short lived. However... you should be prepared to
seek shelter in the event a funnel does reach the ground.


Cb


1038 am CDT Sat Aug 27 2016

... Weak funnel clouds possible today along the coastal Bend...

The atmosphere will be favorable for the development of funnel
clouds today along the middle Texas coast. Most of these funnel
clouds will be short lived. However... you should be prepared to
seek shelter in the event a funnel does reach the ground.


Cb